createdAt,value
2022-11-24T00:02:08.178Z,91669.50
2022-11-24T00:04:37.654Z,91667.84
2022-11-24T00:07:06.995Z,91671.72
2022-11-24T00:09:37.888Z,91675.75
2022-11-24T00:12:07.453Z,91662.66
2022-11-24T00:14:36.934Z,91670.44
2022-11-24T00:17:06.359Z,91665.63
2022-11-24T00:19:35.803Z,91676.47
2022-11-24T00:22:05.210Z,91672.91
2022-11-24T00:24:34.914Z,91675.16
2022-11-24T00:27:06.436Z,91678.69
2022-11-24T00:29:35.880Z,91675.16
2022-11-24T00:32:06.718Z,91671.16
2022-11-24T00:34:36.263Z,91674.44
2022-11-24T00:37:05.781Z,91677.59
2022-11-24T00:39:35.187Z,91682.25
2022-11-24T00:42:06.131Z,91677.16
2022-11-24T00:44:35.713Z,91685.31
2022-11-24T00:47:05.328Z,91688.25
2022-11-24T00:51:07.714Z,91674.50
2022-11-24T00:53:37.625Z,91678.00
2022-11-24T00:56:08.059Z,91671.50
2022-11-24T00:58:37.862Z,91676.44
2022-11-24T01:01:10.528Z,91684.31
2022-11-24T01:03:39.801Z,91680.78
2022-11-24T01:06:14.224Z,91678.88
2022-11-24T01:08:44.309Z,91679.84
2022-11-24T01:11:16.716Z,91680.06
2022-11-24T01:13:48.901Z,91682.28
2022-11-24T01:16:20.064Z,91685.06
2022-11-24T01:18:50.846Z,91683.56
2022-11-24T01:21:22.363Z,91682.63
2022-11-24T01:23:52.116Z,91682.63
2022-11-24T01:26:24.423Z,91690.16
2022-11-24T01:28:56.479Z,91692.13
2022-11-24T01:31:28.306Z,91694.47
2022-11-24T01:33:58.260Z,91694.38
2022-11-24T01:36:29.255Z,91691.59
2022-11-24T01:38:58.760Z,91694.47
2022-11-24T01:41:29.013Z,91697.78
2022-11-24T01:43:59.181Z,91698.97
2022-11-24T01:46:34.045Z,91700.66
2022-11-24T01:49:13.639Z,91696.63
2022-11-24T01:51:49.503Z,91697.91
2022-11-24T01:54:24.074Z,91694.97
2022-11-24T01:57:02.202Z,91693.41
2022-11-24T01:59:31.909Z,91689.38
2022-11-24T02:02:01.694Z,91691.84
2022-11-24T02:04:35.757Z,91693.59
2022-11-24T02:07:09.670Z,91692.03
2022-11-24T02:09:44.676Z,91695.97
2022-11-24T02:12:14.153Z,91696.53
2022-11-24T02:14:45.921Z,91688.88
2022-11-24T02:17:15.398Z,91703.06
2022-11-24T02:19:55.216Z,91702.63
2022-11-24T02:22:37.044Z,91703.78
2022-11-24T02:25:15.026Z,91702.38
2022-11-24T02:27:53.557Z,91699.16
2022-11-24T02:30:23.625Z,91707.44
2022-11-24T02:32:54.912Z,91695.81
2022-11-24T02:35:24.665Z,91691.47
2022-11-24T02:37:54.211Z,91697.34
2022-11-24T02:40:27.296Z,91697.84
2022-11-24T02:43:04.366Z,91694.75
2022-11-24T02:45:33.847Z,91694.44
2022-11-24T02:48:03.211Z,91694.16
2022-11-24T02:50:32.790Z,91689.72
2022-11-24T02:53:02.331Z,91692.81
2022-11-24T02:55:31.706Z,91697.34
2022-11-24T02:58:02.826Z,91692.00
2022-11-24T03:00:32.124Z,91691.47
2022-11-24T03:03:01.401Z,91689.50
2022-11-24T03:05:30.772Z,91691.97
2022-11-24T03:08:00.246Z,91693.63
2022-11-24T03:10:29.864Z,91691.47
2022-11-24T03:13:00.807Z,91693.09
2022-11-24T03:15:30.412Z,91687.44
2022-11-24T03:18:00.007Z,91692.19
2022-11-24T03:20:29.486Z,91689.72
2022-11-24T03:22:59.473Z,91688.25
2022-11-24T03:25:28.835Z,91695.38
2022-11-24T03:28:00.588Z,91685.97
2022-11-24T03:30:30.545Z,91692.78
2022-11-24T03:32:59.869Z,91689.88
2022-11-24T03:35:29.356Z,91689.19
2022-11-24T03:37:58.599Z,91694.94
2022-11-24T03:40:28.034Z,91695.47
2022-11-24T03:42:57.469Z,91698.66
2022-11-24T03:48:18.263Z,91701.97
2022-11-24T03:52:08.050Z,91698.97
2022-11-24T03:54:37.933Z,91701.34
2022-11-24T03:57:07.260Z,91701.97
2022-11-24T03:59:36.788Z,91714.19
2022-11-24T04:02:06.157Z,91709.31
2022-11-24T04:04:35.870Z,91718.09
2022-11-24T04:07:06.917Z,91717.59
2022-11-24T04:09:36.365Z,91715.31
2022-11-24T04:12:24.132Z,91714.50
2022-11-24T04:14:53.624Z,91716.56
2022-11-24T04:17:22.954Z,91715.09
2022-11-24T04:19:52.289Z,91723.59
2022-11-24T04:22:23.074Z,91721.94
2022-11-24T04:24:52.438Z,91720.38
2022-11-24T04:27:21.971Z,91721.94
2022-11-24T04:29:52.249Z,91726.47
2022-11-24T04:32:21.695Z,91727.91
2022-11-24T04:34:51.095Z,91725.97
2022-11-24T04:37:21.939Z,91730.00
2022-11-24T04:39:51.420Z,91728.44
2022-11-24T04:42:20.821Z,91728.63
2022-11-24T04:44:50.446Z,91729.75
2022-11-24T04:47:23.244Z,91737.69
2022-11-24T04:49:52.325Z,91732.13
2022-11-24T04:52:25.759Z,91733.31
2022-11-24T04:54:55.289Z,91728.69
2022-11-24T04:57:27.121Z,91732.47
2022-11-24T04:59:57.167Z,91728.13
2022-11-24T05:02:26.853Z,91742.19
2022-11-24T05:04:56.344Z,91737.03
2022-11-24T05:07:27.234Z,91745.00
2022-11-24T05:10:14.085Z,91750.88
2022-11-24T05:12:48.438Z,91753.69
2022-11-24T05:15:20.650Z,91753.91
2022-11-24T05:17:50.193Z,91749.34
2022-11-24T05:20:20.043Z,91751.38
2022-11-24T05:22:51.029Z,91753.97
2022-11-24T05:25:20.513Z,91750.47
2022-11-24T05:27:49.907Z,91750.25
2022-11-24T05:30:19.744Z,91754.91
2022-11-24T05:32:49.223Z,91755.63
2022-11-24T05:35:19.225Z,91760.91
2022-11-24T05:37:50.204Z,91763.47
2022-11-24T05:40:19.962Z,91764.03
2022-11-24T05:42:49.399Z,91769.09
2022-11-24T05:45:21.950Z,91770.25
2022-11-24T05:47:53.437Z,91768.69
2022-11-24T05:50:24.407Z,91763.94
2022-11-24T05:52:55.295Z,91767.66
2022-11-24T05:55:24.724Z,91758.56
2022-11-24T05:58:01.703Z,91766.06
2022-11-24T06:00:32.527Z,91767.00
2022-11-24T06:03:02.890Z,91768.47
2022-11-24T06:05:32.749Z,91771.78
2022-11-24T06:08:04.072Z,91778.28
2022-11-24T06:10:33.532Z,91783.25
2022-11-24T06:13:08.214Z,91778.66
2022-11-24T06:15:38.856Z,91780.84
2022-11-24T06:18:08.370Z,91795.41
2022-11-24T06:20:37.815Z,91795.41
2022-11-24T06:23:08.631Z,91798.91
2022-11-24T06:25:38.113Z,91798.47
2022-11-24T06:28:08.107Z,91797.44
2022-11-24T06:30:37.572Z,91803.31
2022-11-24T06:33:06.979Z,91804.97
2022-11-24T06:35:36.298Z,91807.47
2022-11-24T06:38:09.063Z,91803.59
2022-11-24T06:40:38.338Z,91811.44
2022-11-24T06:43:07.788Z,91812.22
2022-11-24T06:45:37.313Z,91818.38
2022-11-24T06:48:07.550Z,91815.41
2022-11-24T06:52:04.904Z,91814.59
2022-11-24T06:54:34.647Z,91821.84
2022-11-24T06:57:04.511Z,91820.59
2022-11-24T06:59:34.436Z,91819.19
2022-11-24T07:02:03.980Z,91818.16
2022-11-24T07:04:33.751Z,91819.84
2022-11-24T07:07:06.678Z,91816.31
2022-11-24T07:09:36.113Z,91815.59
2022-11-24T07:12:06.248Z,91815.84
2022-11-24T07:14:36.020Z,91813.34
2022-11-24T07:17:05.944Z,91820.03
2022-11-24T07:19:35.464Z,91817.13
2022-11-24T07:22:06.447Z,91809.63
2022-11-24T07:24:36.127Z,91809.53
2022-11-24T07:27:05.807Z,91813.69
2022-11-24T07:29:35.265Z,91819.56
2022-11-24T07:32:05.870Z,91816.94
2022-11-24T07:34:35.753Z,91823.50
2022-11-24T07:37:07.031Z,91823.31
2022-11-24T07:39:36.490Z,91814.88
2022-11-24T07:42:07.111Z,91815.75
2022-11-24T07:44:36.899Z,91808.78
2022-11-24T07:47:06.485Z,91811.94
2022-11-24T07:49:35.830Z,91813.63
2022-11-24T07:52:07.444Z,91807.16
2022-11-24T07:54:37.107Z,91817.00
2022-11-24T07:57:06.659Z,91805.81
2022-11-24T07:59:36.130Z,91807.50
2022-11-24T08:02:05.383Z,91809.16
2022-11-24T08:04:38.143Z,91815.53
2022-11-24T08:07:08.637Z,91809.56
2022-11-24T08:09:38.184Z,91811.50
2022-11-24T08:12:08.559Z,91817.28
2022-11-24T08:14:37.973Z,91819.63
2022-11-24T08:17:07.433Z,91816.00
2022-11-24T08:19:37.024Z,91820.03
2022-11-24T08:22:07.853Z,91822.19
2022-11-24T08:24:37.341Z,91828.88
2022-11-24T08:27:06.909Z,91829.16
2022-11-24T08:29:36.247Z,91833.03
2022-11-24T08:32:06.173Z,91831.69
2022-11-24T08:34:36.209Z,91832.81
2022-11-24T08:37:07.896Z,91829.50
2022-11-24T08:39:37.345Z,91835.28
2022-11-24T08:42:06.878Z,91835.56
2022-11-24T08:44:36.853Z,91830.25
2022-11-24T08:47:06.680Z,91840.19
2022-11-24T08:49:36.306Z,91837.03
2022-11-24T08:52:06.013Z,91838.66
2022-11-24T08:54:37.071Z,91844.13
2022-11-24T08:57:06.767Z,91841.50
2022-11-24T08:59:36.369Z,91845.03
2022-11-24T09:02:06.472Z,91838.63
2022-11-24T09:04:36.261Z,91842.75
2022-11-24T09:07:05.992Z,91845.25
2022-11-24T09:09:36.979Z,91847.16
2022-11-24T09:12:09.971Z,91842.25
2022-11-24T09:14:43.851Z,91845.53
2022-11-24T09:17:13.436Z,91846.50
2022-11-24T09:19:42.927Z,91854.34
2022-11-24T09:22:12.401Z,91843.59
2022-11-24T09:24:43.388Z,91848.97
2022-11-24T09:27:12.966Z,91845.97
2022-11-24T09:29:42.384Z,91838.41
2022-11-24T09:32:11.804Z,91838.41
2022-11-24T09:34:41.328Z,91845.13
2022-11-24T09:37:10.833Z,91837.56
2022-11-24T09:39:41.746Z,91831.91
2022-11-24T09:42:16.703Z,91828.03
2022-11-24T09:45:30.352Z,91827.88
2022-11-24T09:48:16.308Z,91827.28
2022-11-24T09:52:11.539Z,91822.34
2022-11-24T09:54:47.099Z,91819.59
2022-11-24T09:57:18.443Z,91819.59
2022-11-24T09:59:48.090Z,91825.06
2022-11-24T10:02:17.525Z,91813.19
2022-11-24T10:04:49.138Z,91813.28
2022-11-24T10:07:28.300Z,91819.19
2022-11-24T10:10:07.362Z,91820.03
2022-11-24T10:12:57.261Z,91813.00
2022-11-24T10:15:43.787Z,91813.00
2022-11-24T10:18:37.240Z,91806.09
2022-11-24T10:21:38.765Z,91805.00
2022-11-24T10:24:32.423Z,91809.13
2022-11-24T10:27:08.691Z,91809.13
2022-11-24T10:29:42.779Z,91815.47
2022-11-24T10:32:21.350Z,91821.34
2022-11-24T10:34:52.394Z,91816.00
2022-11-24T10:37:29.904Z,91812.41
2022-11-24T10:40:17.231Z,91810.06
2022-11-24T10:42:59.759Z,91813.44
2022-11-24T10:45:30.821Z,91813.72
2022-11-24T10:48:00.578Z,91820.59
2022-11-24T10:50:34.147Z,91815.38
2022-11-24T10:53:14.556Z,91817.69
2022-11-24T10:56:07.248Z,91820.16
2022-11-24T10:58:38.917Z,91812.03
2022-11-24T11:01:31.819Z,91816.28
2022-11-24T11:04:02.671Z,91819.59
2022-11-24T11:06:33.798Z,91818.31
2022-11-24T11:09:21.113Z,91822.25
2022-11-24T11:11:55.548Z,91821.16
2022-11-24T11:14:35.820Z,91822.34
2022-11-24T11:17:28.512Z,91825.66
2022-11-24T11:20:06.517Z,91812.28
2022-11-24T11:22:39.377Z,91818.25
2022-11-24T11:25:21.026Z,91824.13
2022-11-24T11:27:52.045Z,91819.59
2022-11-24T11:36:17.285Z,91830.59
2022-11-24T11:38:48.346Z,91827.00
2022-11-24T11:41:24.048Z,91831.78
2022-11-24T11:44:11.985Z,91833.56
2022-11-24T11:46:41.367Z,91834.41
2022-11-24T11:49:14.630Z,91830.50
2022-11-24T11:52:03.245Z,91830.09
2022-11-24T11:54:58.335Z,91829.72
2022-11-24T11:57:38.847Z,91829.34
2022-11-24T12:00:18.186Z,91829.41
2022-11-24T12:03:16.840Z,91824.47
2022-11-24T12:05:56.427Z,91826.09
2022-11-24T12:09:11.779Z,91829.41
2022-11-24T12:11:37.229Z,91834.25
2022-11-24T12:14:19.153Z,91832.19
2022-11-24T12:17:04.665Z,91827.09
2022-11-24T12:19:53.979Z,91831.13
2022-11-24T12:22:37.031Z,91831.56
2022-11-24T12:25:24.504Z,91834.59
2022-11-24T12:28:09.707Z,91834.19
2022-11-24T12:30:49.167Z,91831.22
2022-11-24T12:34:01.160Z,91833.47
2022-11-24T12:37:14.878Z,91841.22
2022-11-24T12:39:57.223Z,91843.00
2022-11-24T12:42:40.174Z,91835.16
2022-11-24T12:45:19.626Z,91834.91
2022-11-24T12:48:16.889Z,91829.56
2022-11-24T12:52:23.201Z,91833.72
2022-11-24T12:54:52.859Z,91834.16
2022-11-24T12:57:31.680Z,91831.25
2022-11-24T13:00:08.086Z,91832.50
2022-11-24T13:02:56.328Z,91834.56
2022-11-24T13:05:32.820Z,91841.44
2022-11-24T13:08:06.492Z,91833.47
2022-11-24T13:13:58.264Z,91835.81
2022-11-24T13:16:36.184Z,91831.69
2022-11-24T13:19:16.393Z,91828.53
2022-11-24T13:22:05.846Z,91831.13
2022-11-24T13:24:39.253Z,91831.84
2022-11-24T13:27:46.293Z,91839.66
2022-11-24T13:30:56.219Z,91844.03
2022-11-24T13:33:40.399Z,91844.59
2022-11-24T13:36:40.563Z,91849.16
2022-11-24T13:39:22.813Z,91858.63
2022-11-24T13:42:41.752Z,91862.31
2022-11-24T13:45:02.160Z,91861.78
2022-11-24T13:47:43.926Z,91861.78
2022-11-24T13:51:01.797Z,91867.97
2022-11-24T13:53:36.349Z,91866.59
2022-11-24T13:56:21.978Z,91864.81
2022-11-24T13:58:55.710Z,91866.63
2022-11-24T14:01:26.895Z,91863.88
2022-11-24T14:07:07.863Z,91861.94
2022-11-24T14:09:43.411Z,91868.53
2022-11-24T14:12:18.129Z,91868.78
2022-11-24T14:14:51.402Z,91867.56
2022-11-24T14:17:24.489Z,91870.41
2022-11-24T14:19:56.379Z,91869.75
2022-11-24T14:22:28.220Z,91877.81
2022-11-24T14:25:00.240Z,91874.91
2022-11-24T14:27:32.972Z,91885.75
2022-11-24T14:30:17.477Z,91886.97
2022-11-24T14:32:57.134Z,91891.78
2022-11-24T14:35:28.930Z,91895.59
2022-11-24T14:37:58.918Z,91908.19
2022-11-24T14:40:43.887Z,91903.38
2022-11-24T14:43:27.862Z,91908.00
2022-11-24T14:46:02.395Z,91913.31
2022-11-24T14:48:36.848Z,91906.16
2022-11-24T14:51:18.790Z,91921.19
2022-11-24T14:53:52.552Z,91916.88
2022-11-24T14:56:29.003Z,91921.69
2022-11-24T14:59:00.169Z,91911.00
2022-11-24T15:01:36.325Z,91907.00
2022-11-24T15:04:38.917Z,91911.88
2022-11-24T15:07:17.627Z,91916.78
2022-11-24T15:09:54.603Z,91916.34
2022-11-24T15:12:31.407Z,91920.81
2022-11-24T15:15:04.996Z,91919.31
2022-11-24T15:17:36.598Z,91921.34
2022-11-24T15:20:21.510Z,91924.03
2022-11-24T15:22:52.645Z,91928.13
2022-11-24T15:25:32.776Z,91924.50
2022-11-24T15:28:03.230Z,91926.75
2022-11-24T15:30:33.272Z,91929.34
2022-11-24T15:33:04.650Z,91924.88
2022-11-24T15:35:35.088Z,91915.28
2022-11-24T15:38:04.550Z,91916.09
2022-11-24T15:40:34.266Z,91921.69
2022-11-24T15:43:06.579Z,91930.69
2022-11-24T15:45:36.839Z,91935.81
2022-11-24T15:48:08.205Z,91936.16
2022-11-24T15:52:04.655Z,91937.00
2022-11-24T15:54:34.182Z,91935.81
2022-11-24T15:57:04.477Z,91942.41
2022-11-24T15:59:34.196Z,91942.50
2022-11-24T16:02:03.825Z,91942.88
2022-11-24T16:04:34.029Z,91949.16
2022-11-24T16:07:07.002Z,91951.06
2022-11-24T16:09:36.172Z,91952.97
2022-11-24T16:12:06.838Z,91949.88
2022-11-24T16:14:36.788Z,91949.06
2022-11-24T16:17:06.678Z,91946.59
2022-11-24T16:19:41.490Z,91954.97
2022-11-24T16:22:12.948Z,91953.34
2022-11-24T16:24:42.571Z,91957.66
2022-11-24T16:27:12.114Z,91957.81
2022-11-24T16:29:41.638Z,91948.38
2022-11-24T16:32:11.025Z,91948.50
2022-11-24T16:34:40.514Z,91956.63
2022-11-24T16:37:11.363Z,91957.94
2022-11-24T16:39:43.438Z,91963.66
2022-11-24T16:42:16.788Z,91957.72
2022-11-24T16:44:46.388Z,91962.22
2022-11-24T16:47:15.984Z,91968.97
2022-11-24T16:49:45.278Z,91965.09
2022-11-24T16:52:16.367Z,91962.81
2022-11-24T16:54:46.745Z,91971.69
2022-11-24T16:57:16.348Z,91974.53
2022-11-24T16:59:46.446Z,91978.19
2022-11-24T17:02:16.375Z,91975.94
2022-11-24T17:04:46.010Z,91976.28
2022-11-24T17:07:16.867Z,91987.28
2022-11-24T17:09:46.266Z,91989.50
2022-11-24T17:12:15.685Z,91987.38
2022-11-24T17:15:03.088Z,91991.84
2022-11-24T17:17:35.232Z,91996.75
2022-11-24T17:20:04.699Z,91994.63
2022-11-24T17:22:35.487Z,91998.03
2022-11-24T17:25:06.009Z,92003.81
2022-11-24T17:27:35.588Z,92004.38
2022-11-24T17:30:05.353Z,92001.38
2022-11-24T17:32:35.363Z,92012.09
2022-11-24T17:35:04.869Z,92010.91
2022-11-24T17:37:37.306Z,92010.31
2022-11-24T17:40:27.405Z,92006.16
2022-11-24T17:43:00.814Z,92007.44
2022-11-24T17:45:31.998Z,92003.41
2022-11-24T17:48:02.225Z,92005.63
2022-11-24T17:50:31.697Z,92004.09
2022-11-24T17:53:02.621Z,91997.47
2022-11-24T17:55:32.251Z,91994.75
2022-11-24T17:58:01.815Z,91999.13
2022-11-24T18:00:32.226Z,92001.09
2022-11-24T18:03:01.601Z,91997.06
2022-11-24T18:05:31.111Z,92004.16
2022-11-24T18:08:02.404Z,92025.91
2022-11-24T18:10:33.150Z,92020.25
2022-11-24T18:13:02.545Z,92038.91
2022-11-24T18:15:34.208Z,92038.03
2022-11-24T18:18:04.456Z,92036.84
2022-11-24T18:20:34.116Z,92035.03
2022-11-24T18:23:06.164Z,92035.75
2022-11-24T18:25:37.393Z,92044.75
2022-11-24T18:28:07.284Z,92039.78
2022-11-24T18:30:39.459Z,92040.91
2022-11-24T18:33:08.865Z,92037.19
2022-11-24T18:35:39.831Z,92040.72
2022-11-24T18:38:11.408Z,92051.56
2022-11-24T18:40:41.966Z,92049.41
2022-11-24T18:43:11.190Z,92057.06
2022-11-24T18:45:41.268Z,92056.25
2022-11-24T18:48:10.801Z,92054.38
2022-11-24T18:52:04.668Z,92051.25
2022-11-24T18:54:34.329Z,92062.75
2022-11-24T18:57:04.112Z,92061.28
2022-11-24T18:59:33.598Z,92056.63
2022-11-24T19:02:03.296Z,92049.00
2022-11-24T19:04:33.111Z,92054.78
2022-11-24T19:07:04.397Z,92055.09
2022-11-24T19:09:33.901Z,92051.69
2022-11-24T19:12:04.107Z,92056.75
2022-11-24T19:14:34.804Z,92060.47
2022-11-24T19:17:05.385Z,92057.78
2022-11-24T19:19:34.960Z,92051.47
2022-11-24T19:22:06.510Z,92055.41
2022-11-24T19:24:36.185Z,92048.16
2022-11-24T19:27:05.896Z,92053.16
2022-11-24T19:29:39.083Z,92060.38
2022-11-24T19:32:12.689Z,92061.81
2022-11-24T19:34:42.090Z,92060.47
2022-11-24T19:37:13.030Z,92061.63
2022-11-24T19:39:42.373Z,92069.06
2022-11-24T19:42:11.958Z,92068.34
2022-11-24T19:44:41.268Z,92067.31
2022-11-24T19:47:10.835Z,92080.69
2022-11-24T19:49:40.321Z,92077.88
2022-11-24T19:52:09.867Z,92077.78
2022-11-24T19:54:40.799Z,92080.47
2022-11-24T19:57:10.205Z,92088.13
2022-11-24T19:59:39.584Z,92089.78
2022-11-24T20:02:09.365Z,92087.41
2022-11-24T20:04:41.555Z,92089.88
2022-11-24T20:07:11.819Z,92090.72
2022-11-24T20:09:42.707Z,92086.78
2022-11-24T20:12:12.139Z,92096.53
2022-11-24T20:14:41.659Z,92091.44
2022-11-24T20:17:12.388Z,92101.59
2022-11-24T20:19:41.859Z,92106.97
2022-11-24T20:22:11.247Z,92104.38
2022-11-24T20:24:42.180Z,92102.00
2022-11-24T20:27:11.709Z,92106.25
2022-11-24T20:29:46.447Z,92103.47
2022-11-24T20:32:19.771Z,92099.50
2022-11-24T20:34:49.609Z,92096.09
2022-11-24T20:37:19.019Z,92097.22
2022-11-24T20:39:49.869Z,92093.31
2022-11-24T20:42:19.285Z,92105.59
2022-11-24T20:44:48.668Z,92102.63
2022-11-24T20:47:18.149Z,92092.78
2022-11-24T20:49:47.785Z,92095.16
2022-11-24T20:52:17.319Z,92089.78
2022-11-24T20:54:47.101Z,92093.94
2022-11-24T20:57:18.030Z,92084.41
2022-11-24T20:59:47.428Z,92089.38
2022-11-24T21:02:16.937Z,92096.00
2022-11-24T21:04:46.462Z,92100.25
2022-11-24T21:07:16.054Z,92091.66
2022-11-24T21:09:45.415Z,92095.06
2022-11-24T21:12:14.759Z,92096.91
2022-11-24T21:14:45.651Z,92093.31
2022-11-24T21:17:15.286Z,92088.44
2022-11-24T21:19:44.919Z,92088.44
2022-11-24T21:22:14.151Z,92089.38
2022-11-24T21:24:43.651Z,92091.03
2022-11-24T21:27:12.964Z,92086.56
2022-11-24T21:29:43.914Z,92091.22
2022-11-24T21:32:13.303Z,92096.19
2022-11-24T21:34:42.799Z,92096.19
2022-11-24T21:37:12.209Z,92097.22
2022-11-24T21:39:44.846Z,92101.59
2022-11-24T21:42:14.241Z,92099.72
2022-11-24T21:44:45.045Z,92105.72
2022-11-24T21:47:14.404Z,92117.13
2022-11-24T21:52:04.558Z,92110.28
2022-11-24T21:54:34.298Z,92115.25
2022-11-24T21:57:04.453Z,92117.22
2022-11-24T21:59:33.761Z,92112.44
2022-11-24T22:02:03.315Z,92119.50
2022-11-24T22:04:32.981Z,92120.50
2022-11-24T22:07:04.052Z,92123.09
2022-11-24T22:09:34.070Z,92121.63
2022-11-24T22:12:03.559Z,92115.88
2022-11-24T22:14:37.464Z,92120.59
2022-11-24T22:17:09.670Z,92117.00
2022-11-24T22:19:39.078Z,92122.47
2022-11-24T22:22:10.026Z,92121.22
2022-11-24T22:24:39.764Z,92122.81
2022-11-24T22:27:09.450Z,92117.53
2022-11-24T22:29:39.031Z,92114.31
2022-11-24T22:32:08.679Z,92115.63
2022-11-24T22:34:38.214Z,92121.28
2022-11-24T22:37:09.325Z,92122.41
2022-11-24T22:39:38.712Z,92120.47
2022-11-24T22:42:08.211Z,92120.47
2022-11-24T22:44:37.766Z,92120.47
2022-11-24T22:47:07.467Z,92116.75
2022-11-24T22:49:36.838Z,92114.81
2022-11-24T22:52:06.290Z,92106.13
2022-11-24T22:54:37.615Z,92116.47
2022-11-24T22:57:07.474Z,92115.75
2022-11-24T22:59:36.872Z,92104.47
2022-11-24T23:02:06.348Z,92112.22
2022-11-24T23:04:35.925Z,92105.28
2022-11-24T23:07:05.431Z,92109.75
2022-11-24T23:09:36.270Z,92108.06
2022-11-24T23:12:06.009Z,92108.19
2022-11-24T23:14:35.660Z,92107.75
2022-11-24T23:17:05.400Z,92102.94
2022-11-24T23:19:34.738Z,92114.34
2022-11-24T23:22:04.084Z,92098.63
2022-11-24T23:24:38.129Z,92100.63
2022-11-24T23:27:10.560Z,92094.28
2022-11-24T23:29:40.126Z,92101.78
2022-11-24T23:32:09.508Z,92106.66
2022-11-24T23:34:38.890Z,92102.00
2022-11-24T23:37:08.398Z,92106.03
2022-11-24T23:39:37.726Z,92110.16
2022-11-24T23:42:08.838Z,92117.84
2022-11-24T23:44:38.392Z,92116.16
2022-11-24T23:47:08.041Z,92115.25
2022-11-24T23:49:37.478Z,92122.91
2022-11-24T23:52:07.177Z,92123.72
2022-11-24T23:54:36.624Z,92121.97
2022-11-24T23:57:06.224Z,92123.66
2022-11-24T23:59:37.099Z,92127.88
